Time;durP1;ratioP1;P1;durP2;ratioP2;P2;SDS_P1;SDS_P2;PMS_P1;PMS_P2;Temp;Humidity;BMP_temperature;BMP_pressure;BME280_temperature;BME280_humidity;BME280_pressure;Samples;Min_cycle;Max_cycle;Signal;HPM_P1;HPM_P2
2023/10/02 00:01:56;;;;;;;12.93;8.07;;;11.30;99.90;;;;;;4909096;29;20040;-58
2023/10/02 00:04:25;;;;;;;9.00;7.53;;;11.30;99.90;;;;;;4927816;29;20509;-58
2023/10/02 00:07:05;;;;;;;10.32;7.35;;;11.20;99.90;;;;;;4928473;29;20283;-59
2023/10/02 00:09:42;;;;;;;11.63;7.05;;;11.20;99.90;;;;;;4926063;29;20080;-59
2023/10/02 00:12:14;;;;;;;11.38;8.52;;;11.10;99.90;;;;;;4926265;29;20034;-58
2023/10/02 00:14:41;;;;;;;9.30;7.78;;;11.10;99.90;;;;;;4927819;29;20421;-59
2023/10/02 00:17:13;;;;;;;10.57;7.03;;;11.00;99.90;;;;;;4927272;29;20024;-58
2023/10/02 00:19:49;;;;;;;9.63;7.80;;;10.90;99.90;;;;;;4926651;29;20036;-59
2023/10/02 00:22:34;;;;;;;9.65;7.65;;;10.90;99.90;;;;;;4924451;29;20031;-58
2023/10/02 00:25:06;;;;;;;9.15;7.47;;;10.80;99.90;;;;;;4924891;29;20107;-59
2023/10/02 00:27:34;;;;;;;11.85;7.93;;;10.80;99.90;;;;;;4925860;29;20032;-58
2023/10/02 00:30:00;;;;;;;9.65;7.72;;;10.80;99.90;;;;;;4925162;29;20040;-58
2023/10/02 00:32:29;;;;;;;9.43;7.60;;;10.70;99.90;;;;;;4930159;29;20055;-58
2023/10/02 00:34:58;;;;;;;10.88;8.02;;;10.70;99.90;;;;;;4925886;29;20148;-58
2023/10/02 00:37:43;;;;;;;13.50;8.65;;;10.60;99.90;;;;;;4927038;29;20412;-58
2023/10/02 00:40:12;;;;;;;10.73;8.38;;;10.60;99.90;;;;;;4924890;29;20035;-59
2023/10/02 00:42:38;;;;;;;9.50;7.80;;;10.50;99.90;;;;;;4923935;29;20028;-58
2023/10/02 00:45:04;;;;;;;9.10;7.97;;;10.50;99.90;;;;;;4928029;29;20035;-58
2023/10/02 00:47:41;;;;;;;9.98;7.85;;;10.50;99.90;;;;;;4927136;29;20032;-59
2023/10/02 00:50:07;;;;;;;9.82;8.82;;;10.50;99.90;;;;;;4923183;29;20156;-58
2023/10/02 00:52:33;;;;;;;9.77;7.85;;;10.40;99.90;;;;;;4922243;29;20024;-58
2023/10/02 00:55:05;;;;;;;13.25;8.20;;;10.50;99.90;;;;;;4924868;29;20108;-58
2023/10/02 00:57:35;;;;;;;9.23;7.88;;;10.40;99.90;;;;;;4929275;29;20032;-59
2023/10/02 01:00:06;;;;;;;8.98;7.85;;;10.40;99.90;;;;;;4925725;29;20024;-59
2023/10/02 01:02:34;;;;;;;10.00;8.45;;;10.30;99.90;;;;;;4924270;29;20044;-58
2023/10/02 01:05:00;;;;;;;9.80;7.97;;;10.30;99.90;;;;;;4927108;29;20020;-59
2023/10/02 01:07:28;;;;;;;8.90;8.00;;;10.20;99.90;;;;;;4927183;29;20114;-58
2023/10/02 01:10:07;;;;;;;11.25;8.25;;;10.20;99.90;;;;;;4927700;29;20032;-58
2023/10/02 01:12:43;;;;;;;9.43;8.02;;;10.10;99.90;;;;;;4926984;29;20020;-59
2023/10/02 01:15:13;;;;;;;11.15;8.95;;;10.10;99.90;;;;;;4925457;29;20030;-58
2023/10/02 01:17:49;;;;;;;10.32;8.18;;;10.10;99.90;;;;;;4927089;29;20614;-59
2023/10/02 01:20:32;;;;;;;12.35;8.20;;;10.10;99.90;;;;;;4909676;29;20572;-58
2023/10/02 01:23:12;;;;;;;11.30;8.63;;;10.10;99.90;;;;;;4923881;29;20393;-59
2023/10/02 01:25:40;;;;;;;10.55;8.68;;;10.00;99.90;;;;;;4924911;29;20020;-59
2023/10/02 01:28:09;;;;;;;10.88;8.07;;;10.00;99.90;;;;;;4925209;28;20024;-58
2023/10/02 01:30:35;;;;;;;10.25;8.30;;;10.00;99.90;;;;;;4925872;29;20499;-59
2023/10/02 01:35:38;;;;;;;11.95;8.82;;;10.00;99.90;;;;;;4927608;29;20026;-59
2023/10/02 01:38:12;;;;;;;12.73;7.38;;;10.00;99.90;;;;;;4924222;29;20059;-60
2023/10/02 01:40:44;;;;;;;8.45;7.07;;;10.20;99.90;;;;;;4925262;29;20028;-59
2023/10/02 01:43:12;;;;;;;10.25;7.07;;;10.20;99.90;;;;;;4925236;28;20118;-59
2023/10/02 01:45:42;;;;;;;56.40;15.63;;;10.10;99.90;;;;;;4925169;29;20512;-59
2023/10/02 01:48:10;;;;;;;10.77;5.68;;;10.00;99.90;;;;;;4924684;28;20056;-58
2023/10/02 01:50:36;;;;;;;6.72;5.85;;;9.80;99.90;;;;;;4923076;29;20118;-59
2023/10/02 01:53:25;;;;;;;9.40;7.65;;;9.70;99.90;;;;;;4926503;29;20039;-60
2023/10/02 01:55:51;;;;;;;9.98;6.55;;;9.60;99.90;;;;;;4926049;28;20524;-58
2023/10/02 01:58:16;;;;;;;7.88;5.53;;;9.50;99.90;;;;;;4924344;29;20035;-59
2023/10/02 02:00:45;;;;;;;56.58;31.77;;;9.50;99.90;;;;;;4922547;29;20032;-58
2023/10/02 02:03:14;;;;;;;8.65;7.20;;;9.40;99.90;;;;;;4927667;29;20039;-58
2023/10/02 02:05:39;;;;;;;7.28;6.57;;;9.30;99.90;;;;;;4925320;29;20038;-58
2023/10/02 02:08:21;;;;;;;8.70;6.60;;;9.30;99.90;;;;;;4926709;29;20032;-58
2023/10/02 02:10:50;;;;;;;7.57;6.80;;;9.20;99.90;;;;;;4927750;29;20043;-59
2023/10/02 02:13:16;;;;;;;7.35;6.68;;;9.20;99.90;;;;;;4925678;29;20548;-59
2023/10/02 02:15:47;;;;;;;91.63;16.30;;;9.30;99.90;;;;;;4923512;29;20047;-60
2023/10/02 02:18:14;;;;;;;8.93;7.00;;;9.30;99.90;;;;;;4925474;29;20488;-58
2023/10/02 02:20:58;;;;;;;7.55;5.90;;;9.30;99.90;;;;;;4923462;29;20121;-58
2023/10/02 02:23:30;;;;;;;9.88;7.57;;;9.30;99.90;;;;;;4924793;29;20086;-57
2023/10/02 02:25:56;;;;;;;8.13;7.32;;;9.30;99.90;;;;;;4924175;29;20064;-58
2023/10/02 02:28:22;;;;;;;7.82;7.10;;;9.30;99.90;;;;;;4921955;29;20697;-58
2023/10/02 02:30:48;;;;;;;9.70;6.65;;;9.40;99.90;;;;;;4923515;29;20040;-58
2023/10/02 02:33:16;;;;;;;11.10;6.57;;;9.40;99.90;;;;;;4926324;28;20520;-59
2023/10/02 02:35:44;;;;;;;7.47;6.20;;;9.40;99.90;;;;;;4930391;29;20059;-59
2023/10/02 02:38:16;;;;;;;6.38;5.28;;;9.40;99.90;;;;;;4927676;29;20544;-58
2023/10/02 02:40:42;;;;;;;12.20;7.10;;;9.40;99.90;;;;;;4929185;29;20109;-59
2023/10/02 02:43:19;;;;;;;11.00;7.07;;;9.40;99.90;;;;;;4928915;29;20048;-59
2023/10/02 02:45:45;;;;;;;8.15;6.43;;;9.50;99.90;;;;;;4930324;29;20114;-58
2023/10/02 02:48:12;;;;;;;7.18;6.30;;;9.50;99.90;;;;;;4930005;29;20055;-58
2023/10/02 02:50:41;;;;;;;10.75;6.93;;;9.50;99.90;;;;;;4931375;29;20039;-58
2023/10/02 02:53:21;;;;;;;8.40;6.55;;;9.50;99.90;;;;;;4927465;29;20123;-58
2023/10/02 02:56:14;;;;;;;9.32;6.43;;;9.50;99.90;;;;;;4930111;28;20094;-58
2023/10/02 02:58:48;;;;;;;7.68;6.57;;;9.50;99.90;;;;;;4929200;29;20032;-59
2023/10/02 03:01:29;;;;;;;8.35;7.47;;;9.60;99.90;;;;;;4926634;29;20055;-58
2023/10/02 03:03:56;;;;;;;6.43;4.70;;;9.60;99.90;;;;;;4928400;29;20123;-59
2023/10/02 03:06:22;;;;;;;5.82;4.53;;;9.50;99.90;;;;;;4927602;29;20040;-59
2023/10/02 03:08:51;;;;;;;11.63;4.65;;;9.30;99.90;;;;;;4926572;29;20547;-58
2023/10/02 03:11:22;;;;;;;3.78;3.40;;;9.20;99.90;;;;;;4929654;29;20480;-59
2023/10/02 03:13:51;;;;;;;5.65;4.05;;;9.10;99.90;;;;;;4926892;29;20042;-58
2023/10/02 03:16:21;;;;;;;4.00;3.60;;;9.10;99.90;;;;;;4927352;29;20020;-58
2023/10/02 03:18:49;;;;;;;6.10;3.75;;;8.90;99.90;;;;;;4927665;29;20043;-59
2023/10/02 03:21:24;;;;;;;10.38;5.65;;;8.90;99.90;;;;;;4927458;29;20032;-58
2023/10/02 03:23:53;;;;;;;8.55;4.72;;;8.90;99.90;;;;;;4925147;29;20023;-58
2023/10/02 03:26:27;;;;;;;5.57;4.55;;;8.90;99.90;;;;;;4928075;29;20035;-58
2023/10/02 03:29:03;;;;;;;5.68;4.32;;;8.90;99.90;;;;;;4929425;29;20039;-59
2023/10/02 03:31:38;;;;;;;6.95;5.18;;;8.90;99.90;;;;;;4927146;29;20512;-59
2023/10/02 03:34:48;;;;;;;7.68;5.80;;;8.90;99.90;;;;;;4928673;29;20377;-58
2023/10/02 03:36:55;;;;;;;8.77;6.50;;;8.90;99.90;;;;;;4924119;29;20111;-59
2023/10/02 03:39:51;;;;;;;7.30;5.22;;;8.90;99.90;;;;;;4930455;29;20087;-58
2023/10/02 03:42:12;;;;;;;7.10;5.53;;;8.90;99.90;;;;;;4928585;29;20040;-58
2023/10/02 03:44:39;;;;;;;12.35;5.57;;;9.00;99.90;;;;;;4927573;29;20559;-58
2023/10/02 03:47:04;;;;;;;7.78;5.22;;;9.00;99.90;;;;;;4928925;29;20075;-59
2023/10/02 03:49:33;;;;;;;5.60;4.97;;;9.00;99.90;;;;;;4926335;29;20132;-58
2023/10/02 03:51:58;;;;;;;10.48;5.55;;;9.10;99.90;;;;;;4925884;29;20036;-59
2023/10/02 03:54:27;;;;;;;9.00;5.57;;;9.10;99.90;;;;;;4925263;29;20102;-60
2023/10/02 03:56:56;;;;;;;7.35;5.57;;;9.10;99.90;;;;;;4929186;29;20035;-59
2023/10/02 03:59:26;;;;;;;7.00;4.75;;;9.10;99.90;;;;;;4926392;29;20047;-58
2023/10/02 04:01:57;;;;;;;7.00;5.43;;;9.20;99.90;;;;;;4927661;28;20035;-59
2023/10/02 04:04:24;;;;;;;8.43;5.20;;;9.10;99.90;;;;;;4924874;29;20659;-59
2023/10/02 04:06:53;;;;;;;6.28;4.18;;;9.10;99.90;;;;;;4925180;29;20040;-58
2023/10/02 04:09:25;;;;;;;6.20;4.85;;;9.00;99.90;;;;;;4925304;29;20040;-58
2023/10/02 04:11:55;;;;;;;5.85;4.82;;;8.90;99.90;;;;;;4927151;29;20483;-57
2023/10/02 04:14:31;;;;;;;6.28;4.47;;;8.80;99.90;;;;;;4926153;29;20042;-58
2023/10/02 04:17:49;;;;;;;7.30;4.75;;;8.70;99.90;;;;;;4927333;29;20035;-59
2023/10/02 04:19:51;;;;;;;6.30;4.68;;;8.70;99.90;;;;;;4922824;29;20040;-61
2023/10/02 04:22:25;;;;;;;6.90;4.97;;;8.70;99.90;;;;;;4925312;29;20047;-60
2023/10/02 04:24:58;;;;;;;6.50;4.68;;;8.70;99.90;;;;;;4926664;29;20021;-60
2023/10/02 04:27:27;;;;;;;6.78;5.28;;;8.80;99.90;;;;;;4929214;29;20036;-60
2023/10/02 04:30:27;;;;;;;8.63;5.60;;;8.80;99.90;;;;;;4925941;29;20024;-60
2023/10/02 04:32:51;;;;;;;8.05;6.13;;;8.80;99.90;;;;;;4925549;29;20044;-60
2023/10/02 04:38:08;;;;;;;6.63;4.45;;;8.80;99.90;;;;;;4923851;29;20051;-61
2023/10/02 04:40:44;;;;;;;7.90;4.95;;;8.70;99.90;;;;;;4924798;28;20489;-60
2023/10/02 04:45:46;;;;;;;6.70;4.75;;;8.70;99.90;;;;;;4926127;29;20028;-60
2023/10/02 04:48:13;;;;;;;11.10;4.50;;;8.70;99.90;;;;;;4924362;29;20039;-61
2023/10/02 04:50:45;;;;;;;7.90;4.35;;;8.60;99.90;;;;;;4927276;29;20099;-61
2023/10/02 04:55:41;;;;;;;7.82;3.97;;;8.50;99.90;;;;;;4925565;29;20414;-60
2023/10/02 04:58:14;;;;;;;7.80;3.70;;;8.50;99.90;;;;;;4924409;29;20036;-60
2023/10/02 05:03:37;;;;;;;11.23;4.78;;;8.50;99.90;;;;;;4926308;29;20048;-62
2023/10/02 05:06:03;;;;;;;8.85;5.28;;;8.60;99.90;;;;;;4926631;28;20497;-60
2023/10/02 05:10:56;;;;;;;7.45;5.15;;;8.70;99.90;;;;;;4924501;29;20032;-61
2023/10/02 05:14:09;;;;;;;10.27;4.85;;;8.70;99.90;;;;;;4927443;28;20504;-59
2023/10/02 05:16:12;;;;;;;6.47;4.57;;;8.60;99.90;;;;;;4925512;29;20055;-60
2023/10/02 05:18:44;;;;;;;5.40;4.65;;;8.60;99.90;;;;;;4926849;29;20062;-60
2023/10/02 05:21:16;;;;;;;6.53;4.80;;;8.50;99.90;;;;;;4924823;29;20047;-57
2023/10/02 05:23:56;;;;;;;6.57;4.97;;;8.50;99.90;;;;;;4906076;29;20083;-61
2023/10/02 05:26:36;;;;;;;9.25;5.30;;;8.40;99.90;;;;;;4925085;29;20055;-60
2023/10/02 05:29:05;;;;;;;11.90;5.00;;;8.40;99.90;;;;;;4927259;29;20028;-60
2023/10/02 05:31:35;;;;;;;4.88;4.10;;;8.30;99.90;;;;;;4925849;29;20040;-61
2023/10/02 05:34:08;;;;;;;9.77;4.55;;;8.30;99.90;;;;;;4924641;29;20480;-61
2023/10/02 05:36:35;;;;;;;9.65;5.05;;;8.30;99.90;;;;;;4926418;29;20445;-61
2023/10/02 05:41:51;;;;;;;7.22;5.25;;;8.30;99.90;;;;;;4924305;29;20119;-61
2023/10/02 05:44:34;;;;;;;8.15;5.65;;;8.30;99.90;;;;;;4925149;29;20098;-60
2023/10/02 05:47:07;;;;;;;7.18;4.78;;;8.30;99.90;;;;;;4926641;29;20032;-62
2023/10/02 05:49:37;;;;;;;6.32;4.60;;;8.40;99.90;;;;;;4925455;29;20032;-60
2023/10/02 05:52:07;;;;;;;1999.90;999.90;;;8.40;99.90;;;;;;4924811;29;20073;-61
2023/10/02 05:54:36;;;;;;;38.22;19.48;;;8.40;99.90;;;;;;4923910;29;20036;-60
2023/10/02 05:57:08;;;;;;;8.68;8.48;;;8.50;99.90;;;;;;4925022;29;20118;-60
2023/10/02 05:59:48;;;;;;;39.67;36.80;;;8.50;99.90;;;;;;4924310;29;20031;-61
2023/10/02 06:02:19;;;;;;;41.05;38.20;;;8.60;99.90;;;;;;4924308;29;20507;-60
2023/10/02 06:04:49;;;;;;;1722.95;768.50;;;8.60;99.90;;;;;;4927257;29;20032;-60
2023/10/02 06:10:08;;;;;;;183.93;90.82;;;8.60;99.90;;;;;;4925987;29;20103;-60
2023/10/02 06:12:35;;;;;;;10.02;6.45;;;8.60;99.90;;;;;;4930057;29;20031;-60
2023/10/02 06:15:09;;;;;;;8.05;7.05;;;8.60;99.90;;;;;;4927258;29;20043;-61
2023/10/02 06:17:35;;;;;;;12.80;7.60;;;8.70;99.90;;;;;;4925697;29;20099;-60
2023/10/02 06:20:01;;;;;;;11.07;8.32;;;8.80;99.90;;;;;;4928241;29;20031;-60
2023/10/02 06:22:27;;;;;;;11.30;7.40;;;8.80;99.90;;;;;;4926055;29;20028;-60
2023/10/02 06:24:52;;;;;;;9.13;8.23;;;8.90;99.90;;;;;;4926410;28;20801;-61
2023/10/02 06:27:22;;;;;;;14.05;8.05;;;9.10;99.90;;;;;;4932038;29;20036;-61
2023/10/02 06:29:49;;;;;;;11.55;8.00;;;9.20;99.90;;;;;;4926689;29;20027;-60
2023/10/02 06:32:19;;;;;;;12.95;8.25;;;9.30;99.90;;;;;;4927529;29;20461;-60
2023/10/02 06:34:50;;;;;;;9.05;8.07;;;9.50;99.90;;;;;;4929205;29;20115;-61
2023/10/02 06:37:21;;;;;;;;;;;9.60;99.90;;;;;;4927389;29;20409;-61
2023/10/02 06:42:57;;;;;;;59.38;12.90;;;9.90;99.90;;;;;;4926764;29;20044;-61
2023/10/02 06:45:26;;;;;;;8.57;7.40;;;10.00;99.90;;;;;;4926235;29;20119;-61
2023/10/02 06:47:56;;;;;;;9.02;7.25;;;10.10;99.90;;;;;;4926113;29;20036;-60
2023/10/02 06:50:29;;;;;;;31.08;12.18;;;10.20;99.90;;;;;;4926012;29;20064;-60
2023/10/02 06:52:54;;;;;;;218.00;27.75;;;10.40;99.90;;;;;;4925901;29;20029;-61
2023/10/02 06:55:21;;;;;;;42.33;36.80;;;10.50;99.90;;;;;;4928292;29;20813;-60
2023/10/02 06:57:51;;;;;;;1156.25;104.00;;;10.60;99.90;;;;;;4929046;29;20031;-61
2023/10/02 07:00:19;;;;;;;1480.72;131.48;;;10.70;99.90;;;;;;4929826;29;20036;-60
2023/10/02 07:02:56;;;;;;;1999.90;999.90;;;10.90;99.90;;;;;;4929051;28;20535;-61
2023/10/02 07:05:35;;;;;;;1999.90;999.90;;;11.00;99.90;;;;;;4929777;29;20031;-59
2023/10/02 07:08:17;;;;;;;1999.90;999.90;;;11.20;99.90;;;;;;4928402;29;20052;-58
2023/10/02 07:10:43;;;;;;;1999.90;999.90;;;11.30;99.90;;;;;;4927939;28;20080;-59
2023/10/02 07:13:22;;;;;;;1999.90;999.90;;;11.50;99.90;;;;;;4928868;29;20103;-58
2023/10/02 07:15:55;;;;;;;1999.90;999.90;;;11.60;99.90;;;;;;4914702;29;20031;-58
2023/10/02 07:18:35;;;;;;;1999.90;999.90;;;11.80;99.90;;;;;;4928889;29;20548;-59
2023/10/02 07:21:01;;;;;;;1999.90;999.90;;;12.00;99.90;;;;;;4929478;28;20488;-59
2023/10/02 07:23:30;;;;;;;1999.90;999.90;;;12.20;99.90;;;;;;4929722;29;20500;-59
2023/10/02 07:25:57;;;;;;;1999.90;999.90;;;12.30;99.90;;;;;;4926578;29;20031;-59
2023/10/02 07:28:22;;;;;;;1999.90;999.90;;;12.40;99.90;;;;;;4915641;29;20962;-59
2023/10/02 07:30:50;;;;;;;1999.90;999.90;;;12.60;99.90;;;;;;4922486;29;20075;-59
2023/10/02 07:33:18;;;;;;;1999.90;999.90;;;12.80;99.90;;;;;;4928937;29;20076;-58
2023/10/02 07:35:52;;;;;;;1999.90;999.90;;;12.90;99.90;;;;;;4930480;29;20050;-59
2023/10/02 07:38:19;;;;;;;1999.90;999.90;;;13.10;99.90;;;;;;4928148;29;20511;-58
2023/10/02 07:40:51;;;;;;;1999.90;999.90;;;13.20;99.90;;;;;;4925513;29;20040;-59
2023/10/02 07:43:20;;;;;;;1999.90;999.90;;;13.40;99.90;;;;;;4926999;29;20032;-56
2023/10/02 07:46:01;;;;;;;1999.90;999.90;;;13.50;99.90;;;;;;4929079;29;20120;-60
2023/10/02 07:48:30;;;;;;;1999.90;999.90;;;13.70;99.90;;;;;;4926410;29;21005;-58
2023/10/02 07:50:58;;;;;;;1999.90;999.90;;;13.80;99.90;;;;;;4925496;28;20560;-60
2023/10/02 07:53:38;;;;;;;1999.90;999.90;;;14.00;99.90;;;;;;4926647;29;20559;-58
2023/10/02 07:56:04;;;;;;;1999.90;999.90;;;14.10;99.90;;;;;;4928058;29;20047;-59
2023/10/02 07:58:31;;;;;;;1999.90;999.90;;;14.20;99.90;;;;;;4910907;28;20095;-60
2023/10/02 08:01:06;;;;;;;1999.90;999.90;;;14.20;99.90;;;;;;4927831;29;20034;-59
2023/10/02 08:03:32;;;;;;;1999.90;999.90;;;14.40;99.90;;;;;;4926779;29;20046;-59
2023/10/02 08:06:20;;;;;;;1999.90;999.90;;;14.40;99.90;;;;;;4921840;29;20392;-59
2023/10/02 08:11:35;;;;;;;1999.90;999.90;;;14.50;99.90;;;;;;4927680;29;20071;-59
2023/10/02 08:14:02;;;;;;;1999.90;999.90;;;14.50;99.90;;;;;;4925629;29;20588;-59
2023/10/02 08:16:33;;;;;;;1999.90;999.90;;;14.50;99.90;;;;;;4927225;29;20408;-59
2023/10/02 08:19:01;;;;;;;1999.90;999.90;;;14.60;99.90;;;;;;4929198;29;20082;-59
2023/10/02 08:21:36;;;;;;;1999.90;999.90;;;14.60;99.90;;;;;;4925285;29;20039;-58
2023/10/02 08:24:05;;;;;;;1999.90;999.90;;;14.70;99.90;;;;;;4926618;29;20032;-59
2023/10/02 08:26:40;;;;;;;1999.90;999.90;;;14.80;99.90;;;;;;4927460;29;20028;-59
2023/10/02 08:29:09;;;;;;;1999.90;999.90;;;15.00;99.90;;;;;;4927790;29;20518;-59
2023/10/02 08:31:42;;;;;;;1999.90;999.90;;;15.00;99.90;;;;;;4927076;28;20028;-59
2023/10/02 08:34:09;;;;;;;1999.90;999.90;;;15.20;99.90;;;;;;4925742;29;20092;-59
2023/10/02 08:36:37;;;;;;;1999.90;999.90;;;15.30;99.90;;;;;;4926916;28;20023;-60
2023/10/02 08:39:04;;;;;;;1999.90;999.90;;;15.50;99.90;;;;;;4928867;29;20127;-59
2023/10/02 08:41:30;;;;;;;1999.90;999.90;;;15.60;99.90;;;;;;4926014;29;20023;-59
2023/10/02 08:44:00;;;;;;;1999.90;999.90;;;15.70;99.90;;;;;;4923642;29;20040;-59
2023/10/02 08:46:26;;;;;;;1999.90;999.90;;;15.90;99.90;;;;;;4910852;29;20123;-59
2023/10/02 08:48:55;;;;;;;1999.90;999.90;;;16.10;99.90;;;;;;4927374;28;20110;-60
2023/10/02 08:51:29;;;;;;;1999.90;999.90;;;16.20;99.90;;;;;;4926818;29;20036;-59
2023/10/02 08:53:56;;;;;;;583.67;75.28;;;16.50;99.90;;;;;;4926838;29;20802;-60
2023/10/02 08:56:22;;;;;;;1999.90;999.90;;;16.70;99.90;;;;;;4927656;29;20492;-59
2023/10/02 08:59:15;;;;;;;1537.53;764.72;;;17.00;99.90;;;;;;4926139;29;20114;-59
2023/10/02 09:01:37;;;;;;;9.23;4.28;;;17.30;99.90;;;;;;4926291;29;20032;-60
2023/10/02 09:06:58;;;;;;;33.72;30.88;;;18.90;99.90;;;;;;4929587;29;20039;-59
2023/10/02 09:09:36;;;;;;;13.48;6.43;;;19.80;99.90;;;;;;4928762;29;20106;-59
2023/10/02 09:12:03;;;;;;;9.45;4.80;;;20.50;99.90;;;;;;4925371;29;20126;-60
2023/10/02 09:17:07;;;;;;;7.82;5.13;;;21.50;99.90;;;;;;4927878;28;20039;-59
2023/10/02 09:19:34;;;;;;;21.63;16.27;;;21.60;99.90;;;;;;4924150;29;20036;-60
2023/10/02 09:22:10;;;;;;;12.45;5.63;;;21.30;99.90;;;;;;4926785;29;20036;-60
2023/10/02 09:24:38;;;;;;;135.55;22.00;;;21.20;99.90;;;;;;4925220;29;20904;-60
2023/10/02 09:27:27;;;;;;;30.85;17.77;;;21.10;99.90;;;;;;4924402;29;20115;-59
2023/10/02 09:32:47;;;;;;;9.00;4.45;;;21.20;99.90;;;;;;4927209;29;20038;-59
2023/10/02 09:35:39;;;;;;;4.40;2.03;;;21.40;99.90;;;;;;4927623;28;20046;-60
2023/10/02 09:38:16;;;;;;;5.68;3.67;;;21.40;99.90;;;;;;4925060;29;20119;-60
2023/10/02 09:43:35;;;;;;;5.20;3.42;;;21.70;99.90;;;;;;4927960;29;20140;-60
2023/10/02 09:46:06;;;;;;;49.05;15.05;;;22.10;99.90;;;;;;4927727;29;20486;-60
2023/10/02 09:51:26;;;;;;;1999.90;999.90;;;22.50;99.90;;;;;;4929212;29;20035;-61
2023/10/02 09:54:08;;;;;;;74.95;69.30;;;22.60;99.90;;;;;;4929225;28;20547;-60
2023/10/02 09:57:05;;;;;;;7.50;3.92;;;22.60;99.90;;;;;;4933486;29;20034;-60
2023/10/02 09:59:48;;;;;;;1999.90;999.90;;;22.70;99.90;;;;;;4925260;29;20098;-60
2023/10/02 10:08:15;;;;;;;4.95;3.40;;;22.60;99.90;;;;;;4930106;29;20035;-60
2023/10/02 10:10:48;;;;;;;12.77;6.20;;;22.80;99.90;;;;;;4931974;29;20117;-60
2023/10/02 10:13:50;;;;;;;11.68;7.53;;;23.00;99.90;;;;;;4927003;29;20099;-60
2023/10/02 10:16:19;;;;;;;11.40;7.55;;;22.90;99.90;;;;;;4928596;29;20398;-60
2023/10/02 10:22:00;;;;;;;10.13;7.57;;;22.90;99.90;;;;;;4925114;29;20094;-60
2023/10/02 10:24:51;;;;;;;8.73;7.53;;;23.00;99.90;;;;;;4926218;29;20035;-59
2023/10/02 10:27:43;;;;;;;9.57;7.35;;;23.10;99.90;;;;;;4928397;29;20059;-60
2023/10/02 10:35:40;;;;;;;10.88;8.40;;;23.10;99.90;;;;;;4927730;29;20027;-60
2023/10/02 10:38:36;;;;;;;10.45;8.05;;;23.20;99.90;;;;;;4930654;29;20085;-58
2023/10/02 10:41:06;;;;;;;9.95;7.47;;;23.20;99.90;;;;;;4926147;29;20077;-59
2023/10/02 10:44:38;;;;;;;13.90;7.00;;;23.30;99.90;;;;;;4929181;29;20343;-60
2023/10/02 10:46:31;;;;;;;12.57;7.03;;;23.30;99.90;;;;;;4917466;29;20126;-59
2023/10/02 10:49:23;;;;;;;9.65;7.03;;;23.30;99.90;;;;;;4928595;29;20112;-59
2023/10/02 10:51:52;;;;;;;10.70;7.55;;;23.20;99.90;;;;;;4927022;29;20028;-59
2023/10/02 10:54:27;;;;;;;13.07;7.60;;;23.30;99.90;;;;;;4925725;29;20047;-59
2023/10/02 10:57:22;;;;;;;12.98;7.80;;;23.20;99.90;;;;;;4928845;29;20082;-60
2023/10/02 11:00:23;;;;;;;10.27;6.68;;;23.30;99.90;;;;;;4927904;29;20512;-60
2023/10/02 11:02:54;;;;;;;8.63;6.10;;;23.30;99.90;;;;;;4926906;29;20632;-59
2023/10/02 11:05:19;;;;;;;9.38;6.32;;;23.50;99.90;;;;;;4927570;29;20043;-60
2023/10/02 11:07:47;;;;;;;10.63;6.63;;;23.50;99.90;;;;;;4930052;29;20488;-59
2023/10/02 11:10:19;;;;;;;11.93;6.70;;;23.60;99.90;;;;;;4927789;29;20029;-59
2023/10/02 11:12:59;;;;;;;9.93;6.65;;;23.50;99.90;;;;;;4929033;29;20028;-60
2023/10/02 11:15:50;;;;;;;10.55;6.38;;;23.60;99.90;;;;;;4928061;29;20024;-59
2023/10/02 11:18:20;;;;;;;10.47;6.70;;;23.80;99.90;;;;;;4927815;29;20074;-59
2023/10/02 11:20:57;;;;;;;9.45;5.60;;;23.90;99.90;;;;;;4928482;29;20760;-59
2023/10/02 11:23:43;;;;;;;13.05;6.30;;;23.90;99.90;;;;;;4932593;29;20032;-59
2023/10/02 11:26:13;;;;;;;10.57;6.63;;;24.10;99.90;;;;;;4929799;29;20036;-59
2023/10/02 11:28:49;;;;;;;9.45;5.50;;;24.10;99.90;;;;;;4926961;29;20055;-59
2023/10/02 11:31:32;;;;;;;14.55;5.90;;;24.30;99.90;;;;;;4930214;29;20039;-60
2023/10/02 11:34:05;;;;;;;8.60;6.05;;;24.40;99.90;;;;;;4931750;28;20488;-60
2023/10/02 11:36:35;;;;;;;10.68;6.13;;;24.50;99.90;;;;;;4922352;29;20032;-60
2023/10/02 11:39:50;;;;;;;9.07;5.30;;;24.60;99.90;;;;;;4931869;29;20107;-59
2023/10/02 11:41:59;;;;;;;11.98;7.07;;;24.70;99.90;;;;;;4923739;29;20092;-60
2023/10/02 11:44:26;;;;;;;10.90;7.82;;;24.80;99.90;;;;;;4929841;29;20518;-59
2023/10/02 11:46:51;;;;;;;16.77;8.73;;;25.00;99.90;;;;;;4926729;29;20038;-60
2023/10/02 11:49:17;;;;;;;11.07;7.47;;;25.10;99.90;;;;;;4927716;29;20491;-60
2023/10/02 11:51:44;;;;;;;9.82;7.43;;;25.20;99.90;;;;;;4928722;29;20019;-59
2023/10/02 11:54:11;;;;;;;10.65;6.25;;;25.30;99.90;;;;;;4928659;29;20020;-59
2023/10/02 11:56:38;;;;;;;10.85;6.28;;;25.50;99.90;;;;;;4928006;29;20430;-59
2023/10/02 11:59:04;;;;;;;13.27;5.70;;;25.50;98.90;;;;;;4926199;29;20036;-60
2023/10/02 12:01:29;;;;;;;8.43;5.82;;;25.50;99.90;;;;;;4926197;29;20028;-60
2023/10/02 12:03:57;;;;;;;9.82;5.57;;;25.60;98.40;;;;;;4925105;29;20047;-59
2023/10/02 12:06:24;;;;;;;10.23;6.18;;;25.70;97.80;;;;;;4927151;29;20505;-59
2023/10/02 12:08:50;;;;;;;12.50;6.63;;;25.70;93.90;;;;;;4924338;29;20039;-60
2023/10/02 12:11:16;;;;;;;11.32;5.28;;;25.90;96.00;;;;;;4927169;29;20610;-60
2023/10/02 12:13:45;;;;;;;11.90;7.30;;;25.90;95.10;;;;;;4928145;29;20123;-59
2023/10/02 12:16:13;;;;;;;10.40;6.68;;;25.90;94.70;;;;;;4926235;29;20502;-60
2023/10/02 12:18:42;;;;;;;7.70;5.65;;;25.90;94.10;;;;;;4926505;29;20452;-60
2023/10/02 12:21:10;;;;;;;10.10;5.88;;;26.00;93.70;;;;;;4926619;29;20043;-60
2023/10/02 12:23:40;;;;;;;12.60;7.03;;;26.10;92.40;;;;;;4924644;29;20067;-60
2023/10/02 12:26:12;;;;;;;12.60;7.82;;;26.10;91.20;;;;;;4923109;29;20032;-59
2023/10/02 12:28:38;;;;;;;14.23;7.28;;;26.10;90.80;;;;;;4927393;28;20024;-59
2023/10/02 12:31:08;;;;;;;13.32;6.05;;;26.20;91.10;;;;;;4924752;29;20025;-59
2023/10/02 12:33:35;;;;;;;10.98;6.85;;;26.30;87.00;;;;;;4928147;29;20035;-60
2023/10/02 12:36:02;;;;;;;9.30;5.97;;;26.30;88.70;;;;;;4926936;29;20878;-60
2023/10/02 12:38:28;;;;;;;9.25;6.60;;;26.30;90.40;;;;;;4926874;29;20111;-59
2023/10/02 12:40:53;;;;;;;11.43;6.43;;;26.30;90.40;;;;;;4925104;29;20068;-61
2023/10/02 12:43:19;;;;;;;11.80;6.55;;;26.30;89.70;;;;;;4923694;29;20150;-60
2023/10/02 12:45:45;;;;;;;9.10;6.05;;;26.20;88.40;;;;;;4928019;29;20444;-59
2023/10/02 12:48:15;;;;;;;13.10;6.15;;;26.20;85.40;;;;;;4929400;29;20047;-60
2023/10/02 12:50:42;;;;;;;11.43;6.85;;;26.20;85.10;;;;;;4925539;29;20046;-60
2023/10/02 12:53:10;;;;;;;14.95;7.65;;;26.40;77.20;;;;;;4926495;29;20031;-60
2023/10/02 12:55:36;;;;;;;12.35;7.07;;;26.40;78.20;;;;;;4930338;29;20500;-60
2023/10/02 12:58:04;;;;;;;9.18;6.57;;;26.50;74.80;;;;;;4926488;29;20404;-60
2023/10/02 13:00:31;;;;;;;11.93;7.38;;;26.50;73.40;;;;;;4927188;29;20028;-59
2023/10/02 13:02:58;;;;;;;15.48;8.00;;;26.50;71.90;;;;;;4925434;28;20031;-60
2023/10/02 13:05:25;;;;;;;15.18;8.43;;;26.50;69.10;;;;;;4927243;29;20035;-60
2023/10/02 13:07:55;;;;;;;17.92;7.95;;;26.60;66.10;;;;;;4926814;29;20048;-59
2023/10/02 13:10:23;;;;;;;13.93;7.13;;;26.80;66.90;;;;;;4927668;29;20042;-60
2023/10/02 13:12:49;;;;;;;13.77;8.50;;;26.80;67.70;;;;;;4928603;29;20268;-60
2023/10/02 13:15:15;;;;;;;13.75;7.97;;;26.90;66.40;;;;;;4925783;29;20134;-60
2023/10/02 13:17:41;;;;;;;15.77;8.95;;;27.10;63.20;;;;;;4925561;29;20366;-60
2023/10/02 13:20:08;;;;;;;18.58;10.73;;;27.20;61.00;;;;;;4927756;29;20080;-60
2023/10/02 13:22:35;;;;;;;15.23;9.38;;;27.20;61.50;;;;;;4926338;29;20036;-60
2023/10/02 13:25:04;;;;;;;14.52;8.20;;;27.10;60.30;;;;;;4924045;29;20058;-59
2023/10/02 13:27:36;;;;;;;12.85;9.23;;;27.10;61.70;;;;;;4923524;29;20047;-61
2023/10/02 13:30:05;;;;;;;18.38;10.00;;;27.10;62.30;;;;;;4927465;29;20024;-60
2023/10/02 13:32:31;;;;;;;13.77;9.10;;;27.10;60.90;;;;;;4924585;29;20400;-59
2023/10/02 13:34:56;;;;;;;14.35;9.63;;;27.20;63.50;;;;;;4925180;29;20042;-59
2023/10/02 13:37:22;;;;;;;13.73;10.20;;;27.30;61.20;;;;;;4907479;29;20039;-60
2023/10/02 13:39:47;;;;;;;14.75;9.13;;;27.40;60.10;;;;;;4927189;29;20492;-59
2023/10/02 13:42:14;;;;;;;15.38;9.98;;;27.30;59.20;;;;;;4925914;29;20500;-60
2023/10/02 13:44:40;;;;;;;15.20;9.68;;;27.40;60.80;;;;;;4923329;29;20408;-60
2023/10/02 13:47:06;;;;;;;13.75;9.70;;;27.50;60.60;;;;;;4925267;29;20024;-60
2023/10/02 13:49:31;;;;;;;14.70;9.18;;;27.50;59.20;;;;;;4924558;29;20039;-60
2023/10/02 13:51:57;;;;;;;13.40;9.98;;;27.50;60.40;;;;;;4924166;29;20114;-60
2023/10/02 13:54:22;;;;;;;13.35;9.63;;;27.50;60.90;;;;;;4925735;28;20036;-58
2023/10/02 13:56:48;;;;;;;11.15;8.18;;;27.50;59.80;;;;;;4923202;29;20519;-60